Time;durP1;ratioP1;P1;durP2;ratioP2;P2;SDS_P1;SDS_P2;PMS_P1;PMS_P2;Temp;Humidity;BMP_temperature;BMP_pressure;BME280_temperature;BME280_humidity;BME280_pressure;Samples;Min_cycle;Max_cycle;Signal;HPM_P1;HPM_P2
2021/05/24 00:01:41;;;;;;;6.35;3.50;;;;;;;10.65;69.33;101011.89;1634318;86;25677;-76
2021/05/24 00:04:10;;;;;;;5.10;3.00;;;;;;;10.63;69.31;101010.73;1657655;86;25980;-75
2021/05/24 00:06:36;;;;;;;5.65;3.67;;;;;;;10.62;69.38;101016.28;1630095;86;25704;-76
2021/05/24 00:09:06;;;;;;;8.38;3.70;;;;;;;10.59;69.39;101018.80;1629474;85;25684;-76
2021/05/24 00:11:33;;;;;;;7.47;3.98;;;;;;;10.57;69.44;101020.83;1624900;85;27408;-75
2021/05/24 00:14:00;;;;;;;6.92;3.92;;;;;;;10.58;69.77;101023.00;1669827;85;25704;-76
2021/05/24 00:16:27;;;;;;;5.90;3.87;;;;;;;10.58;70.00;101023.84;1649442;85;25732;-76
2021/05/24 00:18:54;;;;;;;6.90;3.60;;;;;;;10.59;70.01;101030.86;1627810;85;26476;-76
2021/05/24 00:21:22;;;;;;;5.17;3.65;;;;;;;10.60;69.91;101035.22;1623281;85;25665;-76
2021/05/24 00:23:49;;;;;;;5.62;4.40;;;;;;;10.59;69.86;101039.39;1668133;85;27482;-75
2021/05/24 00:26:16;;;;;;;6.12;4.03;;;;;;;10.56;69.77;101041.10;1649066;85;25631;-75
2021/05/24 00:28:43;;;;;;;4.53;3.83;;;;;;;10.55;69.73;101045.62;1648676;85;25895;-76
2021/05/24 00:31:10;;;;;;;6.55;3.83;;;;;;;10.53;69.66;101040.09;1633857;86;25789;-75
2021/05/24 00:33:37;;;;;;;6.40;4.12;;;;;;;10.48;69.57;101043.30;1657572;85;25773;-75
2021/05/24 00:36:04;;;;;;;5.03;3.77;;;;;;;10.44;69.55;101046.50;1607219;87;27511;-75
2021/05/24 00:38:31;;;;;;;4.92;3.58;;;;;;;10.40;69.36;101047.86;1614202;86;25718;-75
2021/05/24 00:40:59;;;;;;;5.45;3.67;;;;;;;10.37;69.47;101051.72;1612205;86;25683;-76
2021/05/24 00:43:26;;;;;;;5.30;3.45;;;;;;;10.34;69.47;101056.10;1630954;87;25815;-75
2021/05/24 00:45:53;;;;;;;5.55;3.15;;;;;;;10.30;69.59;101060.64;1634005;86;25884;-75
2021/05/24 00:48:20;;;;;;;4.65;3.30;;;;;;;10.24;69.80;101056.82;1587648;87;28091;-75
2021/05/24 00:50:47;;;;;;;3.95;3.00;;;;;;;10.19;69.94;101065.02;1587681;87;25714;-76
2021/05/24 00:53:14;;;;;;;6.12;3.20;;;;;;;10.15;70.05;101062.37;1603685;87;25712;-76
2021/05/24 00:55:42;;;;;;;7.12;3.85;;;;;;;10.12;70.07;101073.41;1630671;87;26409;-75
2021/05/24 00:58:09;;;;;;;5.25;3.00;;;;;;;10.05;70.16;101072.73;1630517;87;25710;-75
2021/05/24 01:00:42;;;;;;;3.67;3.02;;;;;;;10.04;70.17;101078.27;1597330;86;28062;-75
2021/05/24 01:03:11;;;;;;;5.17;3.67;;;;;;;10.00;70.32;101077.78;1589867;87;25859;-75
2021/05/24 01:05:40;;;;;;;4.78;3.10;;;;;;;10.00;70.44;101079.61;1637594;87;25732;-76
2021/05/24 01:08:09;;;;;;;5.70;3.30;;;;;;;9.98;70.41;101081.63;1670960;85;25787;-75
2021/05/24 01:10:37;;;;;;;4.42;3.20;;;;;;;9.91;70.46;101076.62;1607223;84;25741;-76
2021/05/24 01:13:07;;;;;;;5.75;3.47;;;;;;;9.90;70.47;101080.31;1616001;84;27272;-75
2021/05/24 01:15:36;;;;;;;4.10;3.25;;;;;;;9.87;70.64;101082.83;1672346;85;25821;-75
2021/05/24 01:18:04;;;;;;;4.67;3.45;;;;;;;9.83;70.66;101083.33;1669212;85;26156;-75
2021/05/24 01:20:32;;;;;;;6.03;3.42;;;;;;;9.78;70.54;101084.33;1589617;86;25741;-76
2021/05/24 01:25:31;;;;;;;;;;;;;;;9.69;70.54;101080.83;1659355;86;27555;-75
2021/05/24 01:27:59;;;;;;;3.92;3.30;;;;;;;9.63;70.64;101082.84;1645660;85;25803;-76
2021/05/24 01:30:26;;;;;;;6.03;3.42;;;;;;;9.59;70.71;101084.20;1647270;85;25685;-76
2021/05/24 01:32:53;;;;;;;3.77;3.12;;;;;;;9.56;70.82;101085.86;1634845;84;26358;-76
2021/05/24 01:35:20;;;;;;;6.25;3.87;;;;;;;9.56;71.00;101089.06;1606879;87;25665;-75
2021/05/24 01:37:47;;;;;;;15.65;8.43;;;;;;;9.54;71.10;101088.39;1612421;87;27489;-76
2021/05/24 01:40:16;;;;;;;14.63;8.35;;;;;;;9.51;71.12;101091.39;1627303;86;25752;-76
2021/05/24 01:42:43;;;;;;;6.90;4.60;;;;;;;9.46;71.06;101087.03;1650138;86;25818;-75
2021/05/24 01:45:13;;;;;;;5.03;3.08;;;;;;;9.38;71.03;101080.36;1627426;86;25737;-75
2021/05/24 01:47:44;;;;;;;2.60;2.40;;;;;;;9.31;71.07;101089.05;1607897;86;26420;-75
2021/05/24 01:50:14;;;;;;;5.75;3.27;;;;;;;9.28;70.98;101082.69;1667716;85;28085;-75
2021/05/24 01:52:43;;;;;;;8.70;4.28;;;;;;;9.24;71.14;101081.36;1670017;85;25711;-75
2021/05/24 01:55:12;;;;;;;5.85;3.60;;;;;;;9.19;71.16;101086.38;1597668;85;25763;-75
2021/05/24 01:57:40;;;;;;;6.58;3.52;;;;;;;9.16;71.20;101084.03;1625997;85;26430;-75
2021/05/24 02:00:16;;;;;;;3.47;3.00;;;;;;;9.14;71.22;101091.37;1648521;85;25671;-76
2021/05/24 02:02:45;;;;;;;6.58;3.10;;;;;;;9.11;71.17;101090.88;1670473;85;27534;-75
2021/05/24 02:05:14;;;;;;;4.78;3.45;;;;;;;9.08;71.29;101092.54;1605360;85;25822;-76
2021/05/24 02:07:43;;;;;;;4.83;3.67;;;;;;;9.05;71.50;101097.70;1651023;85;25653;-76
2021/05/24 02:10:15;;;;;;;6.55;3.85;;;;;;;9.02;71.52;101097.21;1648914;85;25921;-75
2021/05/24 02:12:42;;;;;;;5.15;3.65;;;;;;;8.96;71.63;101096.02;1671416;85;26965;-75
2021/05/24 02:15:12;;;;;;;4.70;3.90;;;;;;;8.94;71.78;101104.69;1623068;85;27509;-75
2021/05/24 02:17:40;;;;;;;5.87;5.27;;;;;;;8.89;71.84;101105.70;1608138;86;25813;-76
2021/05/24 02:20:08;;;;;;;6.47;5.35;;;;;;;8.88;71.74;101101.84;1629809;86;25719;-76
2021/05/24 02:22:35;;;;;;;7.97;4.75;;;;;;;8.85;71.68;101103.52;1629871;87;26344;-76
2021/05/24 02:25:02;;;;;;;11.75;4.83;;;;;;;8.83;71.75;101102.85;1552587;87;25315;-76
2021/05/24 02:27:29;;;;;;;5.92;4.40;;;;;;;8.80;71.90;101103.16;1646750;85;27471;-75
2021/05/24 02:29:56;;;;;;;6.15;4.60;;;;;;;8.76;71.82;101105.33;1659220;84;25914;-75
2021/05/24 02:32:23;;;;;;;6.05;4.53;;;;;;;8.76;71.80;101106.67;1657022;86;26390;-75
2021/05/24 02:34:50;;;;;;;6.05;4.65;;;;;;;8.77;71.95;101103.51;1656453;86;26386;-76
2021/05/24 02:37:18;;;;;;;5.20;4.33;;;;;;;8.77;71.97;101102.98;1634628;86;25301;-76
2021/05/24 02:39:46;;;;;;;5.85;4.50;;;;;;;8.78;72.03;101102.49;1656910;86;27418;-75
2021/05/24 02:42:13;;;;;;;8.35;4.75;;;;;;;8.76;72.02;101108.00;1657532;86;25648;-75
2021/05/24 02:44:40;;;;;;;7.75;5.25;;;;;;;8.75;71.99;101106.31;1610500;86;25687;-76
2021/05/24 02:47:07;;;;;;;7.17;4.60;;;;;;;8.75;72.00;101106.31;1634220;86;26434;-76
2021/05/24 02:49:34;;;;;;;6.85;5.30;;;;;;;8.73;72.22;101119.00;1656904;85;25522;-75
2021/05/24 02:52:01;;;;;;;7.92;5.65;;;;;;;8.69;72.43;101117.66;1668307;85;27474;-76
2021/05/24 02:54:28;;;;;;;8.55;6.37;;;;;;;8.67;72.66;101127.66;1603216;85;25781;-75
2021/05/24 02:56:55;;;;;;;6.28;5.15;;;;;;;8.66;72.72;101125.98;1648702;85;25725;-76
2021/05/24 02:59:22;;;;;;;9.70;5.65;;;;;;;8.67;72.93;101129.00;1649097;85;25842;-76
2021/05/24 03:01:49;;;;;;;7.35;5.42;;;;;;;8.67;72.89;101126.82;1670839;85;25696;-75
2021/05/24 03:04:18;;;;;;;10.15;6.15;;;;;;;8.69;73.13;101135.50;1604792;85;27350;-76
2021/05/24 03:06:46;;;;;;;7.05;5.40;;;;;;;8.70;73.23;101142.53;1620398;85;26341;-76
2021/05/24 03:09:13;;;;;;;9.33;5.65;;;;;;;8.72;73.18;101136.04;1648725;85;25712;-76
2021/05/24 03:11:40;;;;;;;7.28;5.60;;;;;;;8.76;73.35;101142.73;1634018;86;25762;-76
2021/05/24 03:14:07;;;;;;;7.10;5.75;;;;;;;8.79;73.41;101153.59;1634315;84;25743;-76
2021/05/24 03:16:34;;;;;;;7.80;6.15;;;;;;;8.80;73.50;101152.58;1619153;84;27520;-75
2021/05/24 03:19:02;;;;;;;7.60;5.58;;;;;;;8.82;73.68;101152.77;1657553;85;25678;-75
2021/05/24 03:21:29;;;;;;;6.08;5.28;;;;;;;8.83;73.75;101157.09;1672816;85;25725;-75
2021/05/24 03:23:56;;;;;;;8.10;5.80;;;;;;;8.84;73.91;101161.94;1605379;85;25658;-76
2021/05/24 03:26:23;;;;;;;8.40;5.53;;;;;;;8.86;74.04;101163.45;1621361;85;26211;-75
2021/05/24 03:28:50;;;;;;;9.05;5.65;;;;;;;8.92;74.17;101167.30;1648978;85;27527;-75
2021/05/24 03:31:17;;;;;;;9.00;6.00;;;;;;;9.00;74.25;101165.48;1670059;85;25599;-76
2021/05/24 03:33:44;;;;;;;6.92;5.90;;;;;;;9.06;74.27;101163.53;1646079;85;25733;-75
2021/05/24 03:36:11;;;;;;;7.90;5.95;;;;;;;9.13;74.40;101169.88;1620475;85;25761;-75
2021/05/24 03:38:38;;;;;;;9.18;5.95;;;;;;;9.18;74.22;101164.88;1654872;84;26601;-76
2021/05/24 03:41:06;;;;;;;12.13;6.33;;;;;;;9.25;74.26;101165.91;1623097;86;27557;-75
2021/05/24 03:43:33;;;;;;;9.08;6.15;;;;;;;9.34;74.29;101170.77;1582741;87;25840;-76
2021/05/24 03:46:00;;;;;;;6.35;5.55;;;;;;;9.40;74.27;101176.78;1606373;87;25710;-76
2021/05/24 03:48:27;;;;;;;7.53;5.97;;;;;;;9.50;74.36;101188.64;1622263;86;26490;-75
2021/05/24 03:50:54;;;;;;;7.47;6.17;;;;;;;9.63;74.88;101187.66;1667842;84;25469;-76
2021/05/24 03:53:21;;;;;;;9.53;6.10;;;;;;;9.79;74.83;101197.89;1582617;84;27979;-75
2021/05/24 03:55:48;;;;;;;9.28;5.85;;;;;;;9.85;74.89;101195.03;1619307;85;25750;-76
2021/05/24 03:58:15;;;;;;;9.03;6.15;;;;;;;9.91;74.99;101191.68;1670783;84;25506;-76
2021/05/24 04:00:42;;;;;;;6.50;5.78;;;;;;;9.97;75.11;101193.19;1670071;85;25845;-76
2021/05/24 04:03:10;;;;;;;6.78;5.90;;;;;;;10.05;75.19;101195.84;1620745;85;26505;-76
2021/05/24 04:05:39;;;;;;;8.13;5.83;;;;;;;10.11;75.33;101194.39;1635698;85;27407;-76
2021/05/24 04:08:08;;;;;;;7.85;5.67;;;;;;;10.20;75.44;101192.53;1648881;85;25686;-76
2021/05/24 04:10:46;;;;;;;8.30;6.00;;;;;;;10.27;75.47;101186.31;1666685;85;25730;-76
2021/05/24 04:13:07;;;;;;;6.28;5.45;;;;;;;10.35;75.66;101190.83;1626417;85;26070;-75
2021/05/24 04:15:34;;;;;;;6.35;5.25;;;;;;;10.47;75.67;101195.66;1624556;85;25950;-76
2021/05/24 04:18:05;;;;;;;8.35;4.95;;;;;;;10.58;75.72;101191.27;1647962;85;27404;-76
2021/05/24 04:20:31;;;;;;;9.08;5.67;;;;;;;10.66;75.50;101187.22;1669309;85;25808;-76
2021/05/24 04:22:58;;;;;;;9.75;5.72;;;;;;;10.74;75.51;101201.08;1625236;85;26438;-76
2021/05/24 04:25:25;;;;;;;7.47;5.85;;;;;;;10.82;75.31;101211.27;1624922;85;25733;-76
2021/05/24 04:27:52;;;;;;;7.55;6.00;;;;;;;10.88;75.27;101213.24;1648520;85;25697;-75
2021/05/24 04:30:20;;;;;;;9.45;5.78;;;;;;;10.94;75.27;101210.89;1625102;85;27351;-76
2021/05/24 04:32:47;;;;;;;7.67;5.35;;;;;;;10.95;75.18;101212.05;1630539;85;25930;-76
2021/05/24 04:35:16;;;;;;;7.97;5.65;;;;;;;10.97;75.21;101210.02;1609686;86;25900;-76
2021/05/24 04:37:43;;;;;;;8.60;5.95;;;;;;;11.00;75.06;101212.37;1653484;84;26392;-76
2021/05/24 04:40:11;;;;;;;7.90;5.70;;;;;;;11.06;75.18;101203.63;1616892;86;25696;-76
2021/05/24 04:42:38;;;;;;;9.05;6.40;;;;;;;11.13;75.08;101205.09;1609073;86;27413;-75
2021/05/24 04:45:06;;;;;;;9.65;5.85;;;;;;;11.20;75.07;101208.76;1648383;85;25701;-76
2021/05/24 04:47:34;;;;;;;9.90;6.28;;;;;;;11.26;74.75;101206.70;1667644;84;25784;-76
2021/05/24 04:50:02;;;;;;;6.92;5.33;;;;;;;11.31;74.90;101207.02;1625483;85;25922;-76
2021/05/24 04:52:29;;;;;;;8.65;5.28;;;;;;;11.38;74.85;101206.13;1631168;85;25782;-75
2021/05/24 04:54:56;;;;;;;6.78;4.85;;;;;;;11.46;75.06;101202.05;1631452;86;27101;-75
2021/05/24 04:57:23;;;;;;;8.00;5.80;;;;;;;11.51;74.63;101200.17;1655654;84;26458;-75
2021/05/24 04:59:50;;;;;;;9.33;5.45;;;;;;;11.57;74.71;101197.61;1634130;86;25693;-75
2021/05/24 05:02:17;;;;;;;10.68;6.05;;;;;;;11.67;74.72;101203.28;1633812;86;26429;-75
2021/05/24 05:04:46;;;;;;;9.48;5.62;;;;;;;11.76;74.60;101200.88;1626114;87;26514;-76
2021/05/24 05:07:13;;;;;;;7.92;5.10;;;;;;;11.81;74.30;101204.68;1636456;87;27621;-76
2021/05/24 05:09:40;;;;;;;9.48;5.50;;;;;;;11.88;74.15;101204.30;1622440;85;25707;-76
2021/05/24 05:12:07;;;;;;;8.55;5.78;;;;;;;11.95;74.04;101211.96;1633359;85;25741;-75
2021/05/24 05:14:35;;;;;;;9.80;6.55;;;;;;;12.00;73.81;101206.02;1625381;85;26490;-76
2021/05/24 05:17:02;;;;;;;8.03;5.50;;;;;;;12.05;73.68;101210.35;1654733;86;25765;-75
2021/05/24 05:19:29;;;;;;;5.95;5.08;;;;;;;12.10;73.63;101206.63;1623870;85;27598;-76
2021/05/24 05:21:56;;;;;;;7.92;5.72;;;;;;;12.16;73.83;101213.45;1607191;87;26553;-75
2021/05/24 05:24:22;;;;;;;7.85;6.08;;;;;;;12.27;74.23;101221.58;1615868;87;25333;-75
2021/05/24 05:26:49;;;;;;;9.13;5.85;;;;;;;12.34;73.54;101219.30;1612590;87;26323;-75
2021/05/24 05:29:17;;;;;;;9.23;6.28;;;;;;;12.40;73.37;101213.72;1649451;85;25683;-77
2021/05/24 05:31:44;;;;;;;7.83;5.95;;;;;;;12.49;73.82;101210.44;1624824;86;27547;-76
2021/05/24 05:34:11;;;;;;;8.53;5.55;;;;;;;12.58;73.52;101210.16;1630106;87;25720;-76
2021/05/24 05:36:38;;;;;;;7.37;6.00;;;;;;;12.67;73.36;101211.73;1629386;87;25355;-76
2021/05/24 05:39:06;;;;;;;7.10;5.95;;;;;;;12.73;73.19;101206.95;1587264;87;25805;-76
2021/05/24 05:41:34;;;;;;;7.70;6.15;;;;;;;12.80;73.32;101211.92;1598882;85;25935;-76
2021/05/24 05:44:04;;;;;;;8.78;6.37;;;;;;;12.88;73.52;101210.98;1615609;84;27436;-76
2021/05/24 05:46:31;;;;;;;7.83;6.03;;;;;;;12.93;73.02;101224.20;1669718;85;25741;-77
2021/05/24 05:48:58;;;;;;;9.78;6.00;;;;;;;13.01;73.31;101223.25;1622450;85;25829;-76
2021/05/24 05:51:25;;;;;;;7.45;5.53;;;;;;;13.12;73.10;101220.97;1628332;84;25827;-75
2021/05/24 05:53:53;;;;;;;9.00;6.55;;;;;;;13.23;72.93;101225.02;1646946;85;26103;-74
2021/05/24 05:56:20;;;;;;;8.60;6.15;;;;;;;13.32;72.80;101229.78;1666948;84;28362;-75
2021/05/24 05:58:48;;;;;;;6.90;6.08;;;;;;;13.35;72.39;101238.80;1626775;85;25710;-75
2021/05/24 06:01:15;;;;;;;11.03;6.40;;;;;;;13.43;73.06;101238.18;1626200;85;25769;-76
2021/05/24 06:03:42;;;;;;;7.70;6.00;;;;;;;13.55;72.86;101242.06;1625936;85;25812;-75
2021/05/24 06:06:09;;;;;;;9.80;6.75;;;;;;;13.66;72.92;101240.73;1668700;85;25655;-77
2021/05/24 06:08:36;;;;;;;10.25;6.58;;;;;;;13.75;72.56;101249.02;1624284;85;27433;-76
2021/05/24 06:11:03;;;;;;;8.15;5.95;;;;;;;13.85;72.53;101245.48;1631586;84;26416;-76
2021/05/24 06:13:30;;;;;;;8.00;6.08;;;;;;;13.95;71.96;101250.02;1631386;85;26579;-76
2021/05/24 06:15:57;;;;;;;10.58;6.17;;;;;;;14.02;71.95;101247.39;1669283;85;25716;-76
2021/05/24 06:18:24;;;;;;;8.40;6.15;;;;;;;14.11;71.72;101241.69;1599875;85;25740;-76
2021/05/24 06:20:51;;;;;;;7.15;5.90;;;;;;;14.23;71.66;101238.78;1637487;85;27527;-76
2021/05/24 06:23:19;;;;;;;7.55;6.00;;;;;;;14.34;71.59;101239.63;1646485;85;25760;-76
2021/05/24 06:25:46;;;;;;;9.23;5.67;;;;;;;14.47;71.36;101244.28;1624809;85;26515;-76
2021/05/24 06:28:13;;;;;;;7.33;5.90;;;;;;;14.58;71.17;101242.41;1647647;85;26508;-76
2021/05/24 06:30:41;;;;;;;6.67;5.35;;;;;;;14.69;71.09;101244.55;1634434;85;26442;-76
2021/05/24 06:33:10;;;;;;;11.65;7.05;;;;;;;14.77;70.49;101237.65;1648234;85;27579;-76
2021/05/24 06:35:37;;;;;;;6.90;5.65;;;;;;;14.82;70.80;101245.95;1671687;85;26761;-76
2021/05/24 06:38:04;;;;;;;7.62;5.47;;;;;;;14.94;70.77;101249.78;1622631;85;25709;-76
2021/05/24 06:40:31;;;;;;;8.05;5.83;;;;;;;15.07;70.58;101250.36;1650166;85;25752;-77
2021/05/24 06:42:58;;;;;;;6.62;5.40;;;;;;;15.19;69.93;101252.28;1612702;86;26382;-76
2021/05/24 06:45:25;;;;;;;9.90;5.60;;;;;;;15.25;69.38;101260.92;1633576;84;28527;-76
2021/05/24 06:47:52;;;;;;;11.57;6.50;;;;;;;15.34;69.20;101266.47;1635410;85;25743;-76
2021/05/24 06:50:19;;;;;;;8.83;5.70;;;;;;;15.41;68.75;101263.29;1634436;84;25734;-76
2021/05/24 06:52:46;;;;;;;8.83;5.72;;;;;;;15.49;68.96;101259.59;1645788;85;26108;-76
2021/05/24 06:55:15;;;;;;;7.00;5.05;;;;;;;15.58;68.70;101261.59;1670700;85;26185;-75
2021/05/24 06:57:42;;;;;;;6.92;4.62;;;;;;;15.66;68.00;101257.36;1625962;84;28131;-76
2021/05/24 07:00:11;;;;;;;8.90;5.20;;;;;;;15.74;68.13;101255.30;1633425;84;25646;-76
2021/05/24 07:02:41;;;;;;;5.40;4.85;;;;;;;15.84;68.12;101258.45;1622130;84;25921;-76
2021/05/24 07:05:09;;;;;;;7.37;5.03;;;;;;;15.94;67.98;101266.15;1669008;85;25778;-76
2021/05/24 07:07:37;;;;;;;6.58;5.12;;;;;;;16.00;68.11;101266.16;1650095;85;25661;-75
2021/05/24 07:10:06;;;;;;;7.33;5.08;;;;;;;16.12;68.12;101264.50;1636147;85;28137;-76
2021/05/24 07:12:33;;;;;;;5.05;4.35;;;;;;;16.23;67.62;101267.95;1646498;85;26551;-76
2021/05/24 07:15:03;;;;;;;7.85;4.65;;;;;;;16.30;66.82;101271.16;1649021;85;25606;-76
2021/05/24 07:17:30;;;;;;;8.53;4.15;;;;;;;16.36;66.67;101280.63;1650458;85;27687;-76
2021/05/24 07:19:57;;;;;;;6.75;3.80;;;;;;;16.46;66.21;101282.94;1645184;85;26484;-75
2021/05/24 07:22:24;;;;;;;6.97;3.92;;;;;;;16.51;65.73;101275.07;1647276;85;27407;-76
2021/05/24 07:24:53;;;;;;;6.53;3.65;;;;;;;16.57;65.65;101277.74;1649919;85;25684;-76
2021/05/24 07:27:21;;;;;;;4.95;3.77;;;;;;;16.67;65.62;101284.94;1624754;85;25726;-76
2021/05/24 07:29:48;;;;;;;4.92;3.35;;;;;;;16.77;65.63;101284.48;1633931;86;26334;-76
2021/05/24 07:32:15;;;;;;;7.20;4.80;;;;;;;16.87;65.69;101287.07;1589935;85;25735;-77
2021/05/24 07:34:43;;;;;;;5.62;3.10;;;;;;;16.99;64.96;101287.27;1649934;86;27574;-75
2021/05/24 07:37:11;;;;;;;4.20;2.80;;;;;;;17.06;65.04;101300.78;1624974;85;25725;-76
2021/05/24 07:39:38;;;;;;;7.17;2.75;;;;;;;17.12;64.09;101298.06;1634381;84;26460;-77
2021/05/24 07:42:06;;;;;;;3.95;2.52;;;;;;;17.17;63.24;101300.14;1630162;87;26377;-77
2021/05/24 07:44:34;;;;;;;3.60;2.37;;;;;;;17.23;63.42;101307.41;1630833;87;25749;-76
2021/05/24 07:47:03;;;;;;;3.77;2.92;;;;;;;17.32;62.96;101301.52;1586403;87;27498;-77
2021/05/24 07:49:30;;;;;;;3.08;2.42;;;;;;;17.33;60.54;101299.66;1599528;86;25779;-77
2021/05/24 07:51:57;;;;;;;3.52;2.17;;;;;;;17.29;62.36;101294.36;1608614;87;25725;-77
2021/05/24 07:54:24;;;;;;;6.53;3.02;;;;;;;17.39;61.68;101294.22;1589998;87;25845;-76
2021/05/24 07:56:52;;;;;;;3.90;1.92;;;;;;;17.44;61.75;101298.48;1650491;85;25755;-76
2021/05/24 07:59:19;;;;;;;3.15;2.12;;;;;;;17.54;61.56;101303.45;1613153;85;28201;-76
2021/05/24 08:01:46;;;;;;;5.80;3.22;;;;;;;17.61;61.50;101300.20;1653192;85;25669;-77
2021/05/24 08:04:13;;;;;;;3.98;2.58;;;;;;;17.70;60.88;101298.91;1627161;85;26175;-76
2021/05/24 08:06:40;;;;;;;3.33;1.90;;;;;;;17.69;60.71;101300.78;1608026;86;25750;-76
2021/05/24 08:09:07;;;;;;;4.37;2.30;;;;;;;17.74;60.55;101297.43;1611339;87;25803;-76
2021/05/24 08:11:34;;;;;;;10.78;3.10;;;;;;;17.83;60.56;101296.66;1637478;87;27545;-77
2021/05/24 08:14:02;;;;;;;14.43;5.55;;;;;;;17.97;61.01;101295.52;1605783;85;25679;-77
2021/05/24 08:16:29;;;;;;;52.58;11.83;;;;;;;18.12;60.80;101291.46;1606374;87;25605;-77
2021/05/24 08:18:56;;;;;;;9.68;2.70;;;;;;;18.18;60.39;101295.16;1627720;86;25782;-78
2021/05/24 08:21:24;;;;;;;4.47;1.60;;;;;;;18.20;59.83;101300.67;1669311;85;26452;-75
2021/05/24 08:23:51;;;;;;;3.60;1.50;;;;;;;18.28;59.34;101288.20;1649751;85;27357;-76
2021/05/24 08:26:18;;;;;;;3.10;0.90;;;;;;;18.43;58.31;101286.55;1672269;85;25668;-76
2021/05/24 08:28:45;;;;;;;3.08;1.22;;;;;;;18.56;58.68;101292.41;1670438;85;25679;-76
2021/05/24 08:31:12;;;;;;;1.42;0.88;;;;;;;18.69;58.46;101280.89;1669071;85;26344;-76
2021/05/24 08:33:39;;;;;;;1.67;0.80;;;;;;;18.80;56.88;101288.30;1606142;85;25798;-76
2021/05/24 08:36:06;;;;;;;1.52;0.80;;;;;;;18.72;56.67;101285.05;1631463;85;27557;-76
2021/05/24 08:38:34;;;;;;;1.50;0.90;;;;;;;18.74;56.75;101281.58;1657154;86;25805;-76
2021/05/24 08:41:08;;;;;;;1.35;0.90;;;;;;;18.84;57.20;101288.16;1668230;85;26412;-77
2021/05/24 08:43:38;;;;;;;1.00;0.80;;;;;;;18.96;56.94;101298.60;1605645;85;25862;-77
2021/05/24 08:46:06;;;;;;;2.30;1.12;;;;;;;18.96;55.68;101297.77;1600425;84;25767;-76
2021/05/24 08:48:35;;;;;;;28.85;8.50;;;;;;;18.94;52.69;101295.28;1647020;84;27518;-76
2021/05/24 08:51:06;;;;;;;5.53;2.65;;;;;;;18.82;54.30;101278.60;1665427;84;25683;-76
2021/05/24 08:53:33;;;;;;;4.28;2.12;;;;;;;18.89;54.82;101280.70;1603522;85;25845;-76
2021/05/24 08:56:00;;;;;;;3.27;1.42;;;;;;;18.91;54.82;101279.95;1633809;84;25865;-77
2021/05/24 08:58:27;;;;;;;7.37;1.42;;;;;;;18.82;54.23;101282.13;1647342;85;25738;-76
2021/05/24 09:00:54;;;;;;;1.87;0.90;;;;;;;18.85;54.85;101280.84;1663062;84;28052;-77
2021/05/24 09:03:24;;;;;;;2.50;1.00;;;;;;;18.81;53.26;101279.12;1604012;85;25867;-77
2021/05/24 09:05:53;;;;;;;1.00;0.90;;;;;;;18.80;53.62;101280.68;1631701;85;25727;-76
2021/05/24 09:08:37;;;;;;;2.60;0.65;;;;;;;18.83;53.48;101281.08;1646920;85;26504;-77
2021/05/24 09:11:05;;;;;;;2.62;0.90;;;;;;;18.94;53.52;101280.34;1670582;85;25833;-77
2021/05/24 09:13:34;;;;;;;2.15;0.50;;;;;;;19.08;53.56;101275.06;1626466;85;27460;-77
2021/05/24 09:16:01;;;;;;;2.60;0.72;;;;;;;19.23;53.02;101272.80;1638095;85;25810;-77
2021/05/24 09:18:28;;;;;;;1.62;0.70;;;;;;;19.33;52.28;101257.86;1649366;85;26100;-76
2021/05/24 09:20:55;;;;;;;3.15;1.00;;;;;;;19.34;51.64;101259.50;1669290;85;25905;-77
2021/05/24 09:23:29;;;;;;;1.57;0.88;;;;;;;19.33;52.45;101255.98;1599612;85;26057;-77
2021/05/24 09:26:05;;;;;;;2.22;0.80;;;;;;;19.32;52.18;101252.11;1648373;85;28563;-77
2021/05/24 09:28:49;;;;;;;2.55;0.88;;;;;;;19.30;51.80;101253.71;1631039;86;25770;-77
2021/05/24 09:31:25;;;;;;;1.20;0.60;;;;;;;19.37;52.51;101246.87;1630632;86;25996;-76
2021/05/24 09:33:58;;;;;;;1.57;0.70;;;;;;;19.43;51.55;101248.66;1623841;85;25942;-76
2021/05/24 09:36:26;;;;;;;1.45;0.78;;;;;;;19.34;50.23;101237.77;1635227;85;25611;-76
2021/05/24 09:39:12;;;;;;;1.55;0.78;;;;;;;19.18;50.78;101229.19;1647078;85;28197;-77
2021/05/24 09:41:46;;;;;;;1.00;0.53;;;;;;;19.19;51.65;101229.50;1669451;85;25781;-77
2021/05/24 09:44:21;;;;;;;1.30;0.90;;;;;;;19.31;51.86;101222.75;1624870;85;25766;-77
2021/05/24 09:46:51;;;;;;;1.60;1.00;;;;;;;19.45;51.48;101223.45;1647339;85;25804;-77
2021/05/24 09:49:26;;;;;;;0.72;0.70;;;;;;;19.56;50.71;101226.23;1649366;85;25934;-77
2021/05/24 09:51:54;;;;;;;1.20;1.07;;;;;;;19.63;50.59;101229.66;1669461;85;28238;-77
2021/05/24 09:54:26;;;;;;;1.65;0.60;;;;;;;19.63;50.76;101226.95;1604948;85;25928;-77
2021/05/24 09:56:53;;;;;;;4.42;0.82;;;;;;;19.70;50.55;101232.29;1666201;85;26090;-77
2021/05/24 09:59:23;;;;;;;1.22;0.60;;;;;;;19.67;49.45;101225.98;1648941;85;25770;-76
2021/05/24 10:01:55;;;;;;;1.50;0.70;;;;;;;19.54;49.91;101229.71;1670338;85;25679;-76
2021/05/24 10:04:34;;;;;;;1.98;0.62;;;;;;;19.52;50.52;101229.11;1603372;84;27361;-77
2021/05/24 10:07:02;;;;;;;1.05;0.70;;;;;;;19.60;50.62;101233.38;1645377;85;25754;-77
2021/05/24 10:09:35;;;;;;;0.70;0.70;;;;;;;19.65;49.56;101230.81;1670570;84;25671;-76
2021/05/24 10:12:03;;;;;;;1.00;0.57;;;;;;;19.69;50.13;101230.65;1655400;86;26411;-76
2021/05/24 10:14:38;;;;;;;0.78;0.70;;;;;;;19.76;49.11;101217.24;1587844;87;25939;-77
2021/05/24 10:17:07;;;;;;;1.72;0.60;;;;;;;19.85;48.53;101214.50;1627243;86;27392;-77
2021/05/24 10:19:33;;;;;;;0.85;0.65;;;;;;;19.96;48.67;101225.11;1652725;84;25774;-77
2021/05/24 10:22:00;;;;;;;0.68;0.60;;;;;;;20.01;48.52;101227.97;1652350;84;25740;-77
2021/05/24 10:24:27;;;;;;;0.40;0.33;;;;;;;19.99;48.61;101218.66;1628463;84;25944;-77
2021/05/24 10:27:01;;;;;;;0.65;0.60;;;;;;;19.99;48.91;101224.09;1609256;86;25718;-77
2021/05/24 10:29:29;;;;;;;1.02;0.70;;;;;;;20.00;48.45;101228.48;1653409;84;27460;-77
2021/05/24 10:31:57;;;;;;;1.45;0.80;;;;;;;20.08;48.86;101219.15;1631247;86;25893;-78
2021/05/24 10:34:26;;;;;;;1.37;0.75;;;;;;;20.17;48.92;101222.36;1586810;86;26460;-78
2021/05/24 10:37:15;;;;;;;1.72;0.60;;;;;;;20.14;48.28;101223.68;1606417;87;25832;-77
2021/05/24 10:40:02;;;;;;;0.78;0.60;;;;;;;20.18;48.78;101229.47;1618220;85;25815;-77
2021/05/24 10:42:41;;;;;;;0.68;0.50;;;;;;;20.17;47.34;101225.91;1656392;84;27456;-77
2021/05/24 10:45:25;;;;;;;3.12;0.80;;;;;;;20.13;47.58;101221.17;1668134;85;25790;-76
2021/05/24 10:48:00;;;;;;;3.55;0.93;;;;;;;20.17;47.51;101213.67;1648433;85;25271;-76
2021/05/24 10:50:30;;;;;;;0.88;0.65;;;;;;;20.25;47.59;101211.19;1635402;84;25834;-77
2021/05/24 10:53:14;;;;;;;3.05;1.17;;;;;;;20.31;47.28;101212.44;1656734;84;25290;-77
2021/05/24 10:55:44;;;;;;;0.90;0.50;;;;;;;20.34;46.74;101210.59;1654494;84;27377;-77
2021/05/24 10:58:15;;;;;;;2.10;0.68;;;;;;;20.33;46.77;101196.70;1648417;84;25856;-77
2021/05/24 11:01:01;;;;;;;3.15;1.05;;;;;;;20.37;47.51;101195.69;1647254;85;25845;-77
2021/05/24 11:03:29;;;;;;;3.98;0.50;;;;;;;20.40;46.97;101197.39;1668004;84;25858;-77
2021/05/24 11:06:17;;;;;;;1.20;0.60;;;;;;;20.44;46.74;101197.77;1599642;85;25884;-77
2021/05/24 11:08:53;;;;;;;0.95;0.60;;;;;;;20.49;46.92;101206.86;1646527;85;27410;-77
2021/05/24 11:11:30;;;;;;;1.50;0.93;;;;;;;20.55;46.61;101214.08;1646845;85;25848;-77
2021/05/24 11:14:00;;;;;;;5.30;0.90;;;;;;;20.61;46.86;101212.31;1669413;84;26319;-76
2021/05/24 11:16:29;;;;;;;0.37;0.37;;;;;;;20.62;46.50;101211.23;1604020;85;25742;-77
2021/05/24 11:19:16;;;;;;;1.30;0.72;;;;;;;20.63;46.27;101206.94;1634296;84;26049;-76
2021/05/24 11:21:50;;;;;;;0.98;0.70;;;;;;;20.63;46.76;101205.58;1651424;84;27495;-77
2021/05/24 11:24:38;;;;;;;0.93;0.70;;;;;;;20.68;46.91;101200.75;1657831;84;25703;-77
2021/05/24 11:27:16;;;;;;;2.08;1.15;;;;;;;20.65;46.48;101200.72;1616499;84;26584;-76
2021/05/24 11:29:48;;;;;;;1.72;0.93;;;;;;;20.69;46.80;101206.50;1619541;86;27179;-77
2021/05/24 11:32:27;;;;;;;2.17;1.12;;;;;;;20.75;47.25;101205.55;1634783;86;25738;-77
2021/05/24 11:34:55;;;;;;;0.78;0.72;;;;;;;20.76;47.11;101208.02;1650043;85;28065;-77
2021/05/24 11:37:44;;;;;;;1.45;1.00;;;;;;;20.75;46.33;101205.55;1626564;85;25865;-77